Terminal Aerodrome Forecast
Issued by NWS

Home | Current Version | Previous Version | Text Only | Print | Product List | Glossary On
Versions: 1 2 3 4 5 6 7 8 9 10 11 12
000
FTUS44 KEPZ 010541
TAFTCS
TAF
KTCS 010541Z 0106/0206 09011KT P6SM BKN100
     FM010800 05013G21KT P6SM FEW070
     FM011700 10011G17KT P6SM BKN070
     FM012000 16015G22KT P6SM VCSH OVC060
     FM020200 09007KT P6SM BKN080=

USA.gov is the U.S. government's official web portal to all federal, state and local government web resources and services.